KSLB

Storm Lake Municipal Airport

Storm Lake, Iowa, USA
METAR KSLB 210415Z AUTO 06005KT 10SM CLR 01/M00 A2991 RMK AO2
Observed Flight Rules
Jan-21 @ 04:15 UTC (30 minutes ago) Visual Flight Rules
Wind Visibility Clouds
60° at 5 knots 10 miles
  • Clear skies
Temperatures Readings
Current 1°C / 34°F
Dewpoint 0°C / 32°F
Humidity 93%
Altimeter 29.91" Hg
Pressure 1013 hPa
Elevation 454
METAR KSLB 210415Z AUTO 06005KT 10SM CLR 01/M00 A2991 RMK AO2
Observed Flight Rules
Jan-21 @ 04:15 UTC
(30 minutes ago)
VFR
Wind Visibility
60° at 5 knots 10 miles
Clouds
  • Clear skies
Temperature Dewpoint
1°C / 34°F 0°C / 32°F
Humidity Altimeter Pressure
93% 29.91" Hg 1013 hPa